Time;durP1;ratioP1;P1;durP2;ratioP2;P2;SDS_P1;SDS_P2;PMS_P1;PMS_P2;Temp;Humidity;BMP_temperature;BMP_pressure;BME280_temperature;BME280_humidity;BME280_pressure;Samples;Min_cycle;Max_cycle;Signal;HPM_P1;HPM_P2
2021/01/26 00:00:55;;;;;;;19.70;9.52;;;;;;;1.55;88.46;99872.00;4997784;28;20109;-76
2021/01/26 00:03:22;;;;;;;26.08;9.63;;;;;;;1.59;88.85;99881.53;4997752;28;20054;-76
2021/01/26 00:05:49;;;;;;;19.25;9.90;;;;;;;1.53;88.58;99873.81;4997717;28;20061;-76
2021/01/26 00:08:15;;;;;;;23.48;10.38;;;;;;;1.56;88.71;99885.13;4997433;28;20058;-75
2021/01/26 00:10:42;;;;;;;15.48;8.15;;;;;;;1.56;88.67;99879.88;4981800;28;20058;-75
2021/01/26 00:13:08;;;;;;;16.75;9.23;;;;;;;1.45;88.78;99856.50;4998855;28;20396;-75
2021/01/26 00:15:35;;;;;;;25.55;9.50;;;;;;;1.58;88.88;99872.78;4998697;28;20061;-76
2021/01/26 00:18:02;;;;;;;26.27;8.68;;;;;;;1.60;88.34;99883.28;4998634;28;20073;-75
2021/01/26 00:20:29;;;;;;;20.92;8.48;;;;;;;1.54;88.52;99870.28;4998513;28;20058;-75
2021/01/26 00:22:56;;;;;;;17.40;8.32;;;;;;;1.58;88.27;99882.47;4998261;28;20326;-76
2021/01/26 00:25:31;;;;;;;18.73;9.63;;;;;;;1.43;88.83;99858.31;4998586;28;20132;-75
2021/01/26 00:27:58;;;;;;;21.88;9.02;;;;;;;1.50;88.33;99872.16;4998488;28;20052;-75
2021/01/26 00:30:28;;;;;;;18.25;8.52;;;;;;;1.63;88.16;99886.66;4997342;28;20058;-74
2021/01/26 00:33:01;;;;;;;21.65;8.75;;;;;;;1.63;88.42;99894.56;4998533;28;20058;-74
2021/01/26 00:35:30;;;;;;;20.88;8.38;;;;;;;1.60;88.50;99894.66;4997489;28;20050;-75
2021/01/26 00:37:59;;;;;;;19.80;8.82;;;;;;;1.55;88.17;99887.78;4998873;28;20148;-75
2021/01/26 00:40:25;;;;;;;22.88;7.72;;;;;;;1.67;87.98;99891.84;5016699;28;20058;-75
2021/01/26 00:42:52;;;;;;;23.05;8.52;;;;;;;1.59;88.35;99884.19;5016763;28;20120;-75
2021/01/26 00:45:20;;;;;;;15.57;7.95;;;;;;;1.69;88.29;99895.31;5017698;28;20058;-75
2021/01/26 00:47:46;;;;;;;22.60;8.38;;;;;;;1.74;88.24;99899.50;5017769;28;20053;-75
2021/01/26 00:50:14;;;;;;;18.50;5.63;;;;;;;1.70;88.05;99900.50;5016661;28;20065;-75
2021/01/26 00:52:40;;;;;;;21.02;7.63;;;;;;;1.69;88.28;99909.31;5018006;28;20053;-75
2021/01/26 00:55:08;;;;;;;16.77;7.80;;;;;;;1.69;88.26;99901.41;5017864;28;20058;-76
2021/01/26 00:57:35;;;;;;;18.67;8.25;;;;;;;1.39;88.54;99846.16;5016300;28;20052;-76
2021/01/26 01:00:01;;;;;;;17.63;8.00;;;;;;;1.71;88.56;99907.50;5016398;28;20458;-76
2021/01/26 01:02:28;;;;;;;21.13;7.75;;;;;;;1.75;88.49;99903.03;5017125;28;20058;-76
2021/01/26 01:04:54;;;;;;;25.38;7.78;;;;;;;1.73;87.96;99903.06;5016165;28;20056;-76
2021/01/26 01:07:20;;;;;;;23.35;7.20;;;;;;;1.74;88.15;99915.31;4999966;28;20053;-75
2021/01/26 01:09:46;;;;;;;19.05;7.38;;;;;;;1.71;87.75;99906.63;5017272;28;20054;-75
2021/01/26 01:12:13;;;;;;;17.00;6.85;;;;;;;1.72;88.17;99911.00;5017277;28;20049;-75
2021/01/26 01:14:40;;;;;;;21.98;7.50;;;;;;;1.65;88.63;99905.06;5017265;28;20054;-75
2021/01/26 01:17:06;;;;;;;19.05;7.70;;;;;;;1.70;88.48;99913.66;4999943;28;20058;-75
2021/01/26 01:19:34;;;;;;;26.50;7.78;;;;;;;1.76;88.32;99921.38;5016138;28;20057;-74
2021/01/26 01:22:00;;;;;;;18.17;8.13;;;;;;;1.67;88.74;99908.50;5017067;28;20440;-75
2021/01/26 01:24:27;;;;;;;18.58;7.65;;;;;;;1.68;88.89;99915.47;5016703;28;20325;-74
2021/01/26 01:26:53;;;;;;;19.08;7.40;;;;;;;1.67;88.91;99918.16;5015755;28;20354;-74
2021/01/26 01:29:19;;;;;;;19.77;7.70;;;;;;;1.69;89.22;99927.72;5016690;28;20057;-75
2021/01/26 01:31:45;;;;;;;19.85;7.10;;;;;;;1.57;89.24;99912.31;5016895;28;20046;-75
2021/01/26 01:34:12;;;;;;;20.50;7.97;;;;;;;1.66;89.72;99938.34;5016822;28;20050;-75
2021/01/26 01:36:38;;;;;;;21.83;7.75;;;;;;;1.59;90.32;99931.53;5016839;28;20057;-75
2021/01/26 01:39:07;;;;;;;18.35;6.80;;;;;;;1.55;90.89;99929.88;5005802;28;20054;-75
2021/01/26 01:41:37;;;;;;;19.33;8.23;;;;;;;1.55;90.98;99938.66;4996875;28;20821;-75
2021/01/26 01:44:05;;;;;;;16.27;6.90;;;;;;;1.51;91.34;99938.78;4997077;28;20150;-75
2021/01/26 01:46:36;;;;;;;20.25;7.90;;;;;;;1.49;90.87;99923.03;4995878;28;20101;-76
2021/01/26 01:49:06;;;;;;;23.67;7.65;;;;;;;1.55;90.44;99945.66;4997027;28;20137;-75
2021/01/26 01:51:37;;;;;;;18.35;7.53;;;;;;;1.59;90.38;99952.56;4997059;28;20433;-75
2021/01/26 01:54:10;;;;;;;;;;;;;;;1.57;90.74;99946.50;4996829;28;20058;-76
2021/01/26 01:57:08;;;;;;;26.65;8.82;;;;;;;1.53;90.40;99952.75;4996572;28;19926;-75
2021/01/26 01:59:41;;;;;;;20.40;7.38;;;;;;;1.59;90.07;99963.09;4995375;28;20061;-75
2021/01/26 02:02:07;;;;;;;17.45;5.35;;;;;;;1.58;90.04;99954.31;4996864;28;20109;-76
2021/01/26 02:04:36;;;;;;;21.63;7.63;;;;;;;1.58;90.06;99943.81;4995386;28;20440;-76
2021/01/26 02:07:04;;;;;;;15.77;7.10;;;;;;;1.54;90.03;99960.59;4996330;28;20436;-75
2021/01/26 02:09:36;;;;;;;18.75;6.90;;;;;;;1.64;89.68;99963.84;4996548;28;20408;-75
2021/01/26 02:12:04;;;;;;;15.38;6.90;;;;;;;1.65;89.86;99973.47;4996606;28;20062;-75
2021/01/26 02:14:35;;;;;;;18.17;6.38;;;;;;;1.62;89.41;99969.13;4996546;28;20360;-75
2021/01/26 02:17:40;;;;;;;15.65;7.68;;;;;;;1.60;90.06;99963.06;4996478;28;20415;-75
2021/01/26 02:20:06;;;;;;;20.85;7.68;;;;;;;1.66;90.15;99967.28;4996221;28;20054;-76
2021/01/26 02:22:38;;;;;;;13.80;6.70;;;;;;;1.67;89.94;99969.00;4996417;28;20065;-75
2021/01/26 02:25:32;;;;;;;24.58;6.93;;;;;;;1.69;90.00;99968.97;4995755;28;20392;-75
2021/01/26 02:28:23;;;;;;;22.10;7.22;;;;;;;1.62;90.08;99960.38;4997517;28;20054;-74
2021/01/26 02:31:08;;;;;;;16.15;6.70;;;;;;;1.62;90.24;99963.88;4997166;28;20402;-76
2021/01/26 02:34:17;;;;;;;17.60;6.78;;;;;;;1.58;90.48;99971.91;4996297;28;20050;-76
2021/01/26 02:36:56;;;;;;;16.83;6.18;;;;;;;1.56;91.41;99969.31;4996314;28;20046;-75
2021/01/26 02:39:57;;;;;;;20.13;6.20;;;;;;;1.59;90.83;99981.50;5009249;28;20065;-75
2021/01/26 02:42:39;;;;;;;12.98;5.78;;;;;;;1.56;90.47;99966.66;4993722;28;20054;-75
2021/01/26 02:45:14;;;;;;;14.45;5.35;;;;;;;1.59;90.13;99965.72;5013731;28;20093;-75
2021/01/26 02:48:18;;;;;;;18.17;7.00;;;;;;;1.58;90.27;99972.75;5015592;28;20046;-76
2021/01/26 02:51:14;;;;;;;23.60;6.82;;;;;;;1.58;90.12;99982.41;5015630;28;20172;-75
2021/01/26 02:54:03;;;;;;;13.18;4.95;;;;;;;1.41;89.91;99959.19;5014319;28;20053;-75
2021/01/26 02:56:42;;;;;;;14.73;6.03;;;;;;;1.50;90.32;99979.97;5015491;28;20056;-74
2021/01/26 02:59:30;;;;;;;18.52;6.32;;;;;;;1.56;90.04;99989.47;5015854;28;20081;-74
2021/01/26 03:02:09;;;;;;;18.10;7.43;;;;;;;1.45;90.27;99988.00;5015618;28;20049;-75
2021/01/26 03:04:50;;;;;;;20.92;5.95;;;;;;;1.49;90.61;100000.16;5015384;28;20515;-76
2021/01/26 03:07:20;;;;;;;17.27;5.97;;;;;;;1.48;90.54;99998.44;5014507;28;20352;-75
2021/01/26 03:09:52;;;;;;;14.33;6.30;;;;;;;1.43;90.24;99996.84;5015418;28;20082;-75
2021/01/26 03:12:34;;;;;;;23.30;6.80;;;;;;;1.52;89.94;99999.22;5015365;28;20333;-75
2021/01/26 03:15:06;;;;;;;22.30;6.75;;;;;;;1.55;90.01;99995.63;5015519;28;20053;-75
2021/01/26 03:17:39;;;;;;;17.35;5.88;;;;;;;1.61;89.54;100001.63;5014458;28;20085;-75
2021/01/26 03:20:19;;;;;;;23.52;5.40;;;;;;;1.57;89.00;100002.59;5015389;28;20103;-75
2021/01/26 03:22:49;;;;;;;14.77;5.10;;;;;;;1.63;88.99;100012.94;5014993;28;20391;-75
2021/01/26 03:25:20;;;;;;;12.45;5.15;;;;;;;1.63;89.09;100012.06;5015014;28;20053;-74
2021/01/26 03:27:48;;;;;;;19.00;4.90;;;;;;;1.62;88.80;99999.84;5015319;28;20058;-74
2021/01/26 03:30:20;;;;;;;18.52;5.60;;;;;;;1.65;88.75;100007.66;5014949;28;20137;-75
2021/01/26 03:32:56;;;;;;;18.20;4.82;;;;;;;1.66;88.80;100013.75;5015290;28;20133;-75
2021/01/26 03:35:23;;;;;;;16.98;5.70;;;;;;;1.67;89.08;100016.38;5015057;28;20085;-75
2021/01/26 03:37:54;;;;;;;13.32;5.32;;;;;;;1.61;88.54;100008.63;5014328;28;20058;-76
2021/01/26 03:40:20;;;;;;;15.32;4.90;;;;;;;1.59;89.15;99998.13;4995531;28;20050;-75
2021/01/26 03:42:46;;;;;;;22.25;5.03;;;;;;;1.66;88.52;100005.88;4995345;28;20058;-74
2021/01/26 03:45:13;;;;;;;16.33;5.10;;;;;;;1.66;88.75;100006.75;4995101;28;20066;-75
2021/01/26 03:47:43;;;;;;;14.95;5.40;;;;;;;1.66;88.54;100012.00;4994365;28;20332;-75
2021/01/26 03:50:22;;;;;;;15.45;4.90;;;;;;;1.65;88.22;100007.66;4978237;28;20062;-76
2021/01/26 03:52:54;;;;;;;17.30;5.00;;;;;;;1.67;88.60;100012.84;4995363;28;20356;-75
2021/01/26 03:55:56;;;;;;;20.98;5.18;;;;;;;1.61;88.55;100020.03;4994121;28;20436;-75
2021/01/26 03:59:06;;;;;;;12.75;5.18;;;;;;;1.65;88.85;100014.69;4977184;28;20104;-75
2021/01/26 04:01:38;;;;;;;9.87;3.97;;;;;;;1.60;88.77;100022.69;4957402;28;20125;-75
2021/01/26 04:04:20;;;;;;;14.80;5.13;;;;;;;1.56;89.00;100027.16;4973734;28;20110;-75
2021/01/26 04:06:54;;;;;;;17.40;4.68;;;;;;;1.57;89.09;100038.56;4986723;28;20077;-75
2021/01/26 04:09:42;;;;;;;15.75;6.30;;;;;;;1.58;88.57;100038.50;4995227;28;20054;-73
2021/01/26 04:12:16;;;;;;;14.40;5.05;;;;;;;1.56;88.82;100039.44;4995317;28;20506;-74
2021/01/26 04:14:56;;;;;;;15.05;5.50;;;;;;;1.57;88.54;100054.34;4996694;28;20057;-73
2021/01/26 04:17:28;;;;;;;14.25;5.20;;;;;;;1.47;88.63;100028.28;4995116;28;20046;-75
2021/01/26 04:20:01;;;;;;;17.48;4.32;;;;;;;1.55;88.74;100067.53;4998733;28;20404;-77
2021/01/26 04:22:28;;;;;;;16.83;4.88;;;;;;;1.63;88.22;100077.84;4998485;28;20057;-74
2021/01/26 04:24:55;;;;;;;12.23;4.88;;;;;;;1.55;88.45;100058.78;4998666;28;20050;-74
2021/01/26 04:27:23;;;;;;;19.83;4.90;;;;;;;1.65;88.66;100078.69;4998582;28;20050;-75
2021/01/26 04:29:51;;;;;;;12.20;4.95;;;;;;;1.68;87.85;100080.38;4998637;28;20054;-75
2021/01/26 04:32:19;;;;;;;10.93;3.63;;;;;;;1.69;87.90;100088.22;4998475;28;20057;-75
2021/01/26 04:34:45;;;;;;;17.27;5.57;;;;;;;1.62;88.45;100074.38;4998200;28;20054;-75
2021/01/26 04:37:12;;;;;;;14.07;4.80;;;;;;;1.65;87.90;100083.97;4998294;28;20058;-75
2021/01/26 04:39:38;;;;;;;11.23;4.20;;;;;;;1.63;87.76;100081.34;5012600;28;20046;-76
2021/01/26 04:42:15;;;;;;;19.70;5.10;;;;;;;1.58;87.70;100072.72;5016802;28;20188;-75
2021/01/26 04:45:03;;;;;;;16.13;4.55;;;;;;;1.68;88.14;100085.66;5016816;28;20049;-75
2021/01/26 04:47:33;;;;;;;12.07;4.22;;;;;;;1.69;87.76;100095.28;5017422;28;20152;-75
2021/01/26 04:50:21;;;;;;;16.25;4.68;;;;;;;1.69;87.29;100087.38;5016466;28;20062;-74
2021/01/26 04:53:05;;;;;;;15.82;4.15;;;;;;;1.69;87.33;100104.00;5016639;28;20058;-73
2021/01/26 04:55:31;;;;;;;19.15;4.55;;;;;;;1.73;87.45;100107.44;5016359;28;20440;-74
2021/01/26 04:58:33;;;;;;;11.98;4.80;;;;;;;1.70;87.46;100112.78;5017174;28;20089;-74
2021/01/26 05:01:17;;;;;;;21.38;4.10;;;;;;;1.71;87.20;100111.88;5005423;28;20088;-73
2021/01/26 05:03:43;;;;;;;15.40;4.00;;;;;;;1.75;87.33;100113.53;5017174;28;20058;-73
2021/01/26 05:06:16;;;;;;;10.73;4.75;;;;;;;1.78;87.35;100121.34;5017526;28;20054;-73
2021/01/26 05:08:48;;;;;;;15.93;4.47;;;;;;;1.74;87.01;100117.06;5016960;28;20050;-75
2021/01/26 05:11:18;;;;;;;16.00;4.15;;;;;;;1.77;86.37;100116.97;5016326;28;20380;-74
2021/01/26 05:13:49;;;;;;;14.45;3.90;;;;;;;1.78;86.95;100128.38;5017124;28;20151;-74
2021/01/26 05:16:23;;;;;;;14.30;4.07;;;;;;;1.78;86.81;100131.00;5017096;28;20054;-74
2021/01/26 05:19:23;;;;;;;21.55;7.43;;;;;;;1.78;86.77;100113.44;5016946;28;20065;-74
2021/01/26 05:22:15;;;;;;;17.90;3.55;;;;;;;1.77;86.91;100109.09;5016991;28;20076;-74
2021/01/26 05:25:01;;;;;;;12.73;3.85;;;;;;;1.72;87.12;100117.09;5017192;28;20057;-73
2021/01/26 05:27:28;;;;;;;19.15;4.07;;;;;;;1.75;86.73;100121.44;5015917;28;20054;-73
2021/01/26 05:29:55;;;;;;;16.65;4.47;;;;;;;1.75;86.91;100127.53;5015398;28;20054;-75
2021/01/26 05:32:21;;;;;;;13.30;3.60;;;;;;;1.78;86.45;100131.88;5017066;28;20054;-75
2021/01/26 05:34:51;;;;;;;15.80;3.85;;;;;;;1.75;87.01;100134.59;5016914;28;20050;-74
2021/01/26 05:37:19;;;;;;;14.82;3.90;;;;;;;1.75;87.04;100143.31;5015596;28;20080;-75
2021/01/26 05:40:01;;;;;;;15.90;4.43;;;;;;;1.70;86.96;100129.41;4999542;28;20124;-73
2021/01/26 05:42:28;;;;;;;11.55;3.72;;;;;;;1.73;86.74;100134.63;4997207;28;20050;-73
2021/01/26 05:44:58;;;;;;;10.60;3.83;;;;;;;1.74;87.31;100146.03;4997206;28;20054;-74
2021/01/26 05:47:35;;;;;;;24.45;4.55;;;;;;;1.73;87.28;100136.38;4996763;28;20116;-75
2021/01/26 05:50:04;;;;;;;9.95;4.00;;;;;;;1.76;87.02;100154.72;4996770;28;20447;-75
2021/01/26 05:52:40;;;;;;;17.50;4.35;;;;;;;1.73;87.39;100155.66;4996653;28;20050;-74
2021/01/26 05:55:20;;;;;;;16.77;3.88;;;;;;;1.71;87.59;100144.31;4996788;28;20058;-75
2021/01/26 05:57:49;;;;;;;15.05;3.83;;;;;;;1.71;87.53;100148.72;4995823;28;20104;-73
2021/01/26 06:00:19;;;;;;;15.00;4.07;;;;;;;1.72;87.39;100148.69;4980558;28;20057;-74
2021/01/26 06:02:46;;;;;;;16.75;4.20;;;;;;;1.71;87.09;100152.22;4996701;28;20051;-73
2021/01/26 06:05:22;;;;;;;11.68;3.88;;;;;;;1.69;86.94;100140.84;4996436;28;20333;-73
2021/01/26 06:08:15;;;;;;;13.98;3.60;;;;;;;1.76;86.98;100144.19;4995372;28;20050;-74
2021/01/26 06:10:44;;;;;;;11.18;3.95;;;;;;;1.70;87.44;100139.94;4996043;28;20058;-74
2021/01/26 06:13:11;;;;;;;14.27;3.70;;;;;;;1.78;86.50;100147.66;4995148;28;20046;-74
2021/01/26 06:15:40;;;;;;;11.95;4.10;;;;;;;1.77;86.65;100145.94;4996740;28;20061;-76
2021/01/26 06:18:18;;;;;;;20.48;3.63;;;;;;;1.78;86.63;100165.22;5002628;28;20050;-75
2021/01/26 06:21:07;;;;;;;14.90;3.80;;;;;;;1.79;86.61;100159.91;5004802;28;20057;-75
2021/01/26 06:23:35;;;;;;;15.00;3.95;;;;;;;1.73;86.49;100155.66;4976569;28;20058;-75
2021/01/26 06:26:06;;;;;;;10.85;3.90;;;;;;;1.74;86.32;100160.03;5008148;28;20467;-75
2021/01/26 06:28:54;;;;;;;8.90;3.40;;;;;;;1.68;86.40;100164.59;4976369;28;20054;-79
2021/01/26 06:31:35;;;;;;;13.60;3.78;;;;;;;1.74;87.08;100173.19;5030970;28;20057;-72
2021/01/26 06:34:15;;;;;;;13.48;3.70;;;;;;;1.74;87.07;100180.22;5010546;28;20056;-74
2021/01/26 06:36:45;;;;;;;15.88;3.53;;;;;;;1.75;86.62;100180.16;5006230;28;20070;-74
2021/01/26 06:40:05;;;;;;;20.10;4.20;;;;;;;1.74;86.60;100188.13;5002023;28;20446;-74
2021/01/26 06:43:08;;;;;;;12.88;3.28;;;;;;;1.74;86.94;100194.22;5000376;28;20046;-74
2021/01/26 06:46:02;;;;;;;16.10;3.65;;;;;;;1.68;87.10;100212.78;5004861;28;20058;-74
2021/01/26 06:48:57;;;;;;;10.60;3.40;;;;;;;1.73;86.84;100215.31;5003729;28;20046;-73
2021/01/26 06:51:38;;;;;;;11.05;3.50;;;;;;;1.69;87.00;100214.53;5005568;28;20447;-75
2021/01/26 06:54:10;;;;;;;16.60;4.07;;;;;;;1.70;86.83;100224.13;5006435;28;20124;-76
2021/01/26 06:57:02;;;;;;;11.68;4.13;;;;;;;1.72;87.00;100225.00;5003715;28;20046;-73
2021/01/26 06:59:47;;;;;;;13.80;3.30;;;;;;;1.79;86.92;100222.22;5003000;28;20050;-75
2021/01/26 07:02:34;;;;;;;14.98;5.10;;;;;;;1.78;86.62;100220.50;5002902;28;20104;-71
2021/01/26 07:05:12;;;;;;;8.90;3.35;;;;;;;1.73;86.15;100218.81;5004820;28;20129;-75
2021/01/26 07:07:46;;;;;;;15.63;4.00;;;;;;;1.80;86.56;100240.59;5004557;28;20417;-74
2021/01/26 07:10:43;;;;;;;12.93;3.88;;;;;;;1.85;86.78;100251.03;5002815;28;20051;-75
2021/01/26 07:13:37;;;;;;;10.70;3.63;;;;;;;1.85;86.18;100253.66;5004165;28;20411;-78
2021/01/26 07:16:30;;;;;;;17.40;4.10;;;;;;;1.83;86.42;100239.66;5007818;28;20053;-75
2021/01/26 07:19:30;;;;;;;11.05;3.55;;;;;;;1.83;86.78;100261.59;5015264;28;20053;-74
2021/01/26 07:22:14;;;;;;;7.60;2.58;;;;;;;1.84;86.24;100247.50;4975140;28;20436;-75
2021/01/26 07:25:11;;;;;;;13.13;4.45;;;;;;;1.83;86.35;100258.94;4974104;28;20469;-75
2021/01/26 07:28:12;;;;;;;14.30;3.33;;;;;;;1.77;86.69;100261.72;5017788;28;20046;-75
2021/01/26 07:30:55;;;;;;;13.13;3.78;;;;;;;1.74;86.25;100252.13;5025024;28;20061;-77
2021/01/26 07:33:51;;;;;;;17.27;4.50;;;;;;;1.76;86.55;100257.38;4993725;28;20345;-75
2021/01/26 07:36:35;;;;;;;17.20;3.85;;;;;;;1.69;86.15;100251.34;4993193;28;20057;-75
2021/01/26 07:39:16;;;;;;;13.63;3.75;;;;;;;1.74;86.20;100262.66;5005803;28;20056;-75
2021/01/26 07:42:03;;;;;;;13.10;4.30;;;;;;;1.72;86.32;100264.47;5014960;28;20049;-75
2021/01/26 07:44:51;;;;;;;24.00;3.78;;;;;;;1.68;86.24;100283.84;5014571;28;20050;-75
2021/01/26 07:47:24;;;;;;;10.50;4.15;;;;;;;1.58;86.26;100266.53;5014937;28;20050;-75
2021/01/26 07:49:54;;;;;;;19.25;4.00;;;;;;;1.73;86.42;100281.09;5014921;28;20060;-75
2021/01/26 07:52:24;;;;;;;19.17;3.95;;;;;;;1.68;86.08;100298.78;5015589;28;20053;-75
2021/01/26 07:54:59;;;;;;;7.95;3.65;;;;;;;1.65;85.86;100299.72;5018254;28;20081;-74
2021/01/26 07:57:35;;;;;;;16.73;4.75;;;;;;;1.67;86.21;100297.03;5018669;28;20100;-74
2021/01/26 08:00:04;;;;;;;9.43;4.28;;;;;;;1.60;85.76;100304.19;5018382;28;20058;-75
2021/01/26 08:02:38;;;;;;;13.05;4.03;;;;;;;1.63;85.69;100306.75;5017904;28;20045;-75
2021/01/26 08:05:15;;;;;;;18.00;4.10;;;;;;;1.61;85.59;100313.81;5018272;28;20060;-75
2021/01/26 08:07:44;;;;;;;9.70;3.97;;;;;;;1.61;85.82;100300.66;5014939;28;20045;-78
2021/01/26 08:10:22;;;;;;;10.00;3.50;;;;;;;1.71;84.74;100311.84;5018202;28;20054;-76
2021/01/26 08:12:49;;;;;;;13.73;4.07;;;;;;;1.62;84.75;100284.84;5011629;28;20104;-77
2021/01/26 08:15:20;;;;;;;16.92;4.45;;;;;;;1.72;85.08;100327.63;5018207;28;20058;-75
2021/01/26 08:17:47;;;;;;;7.63;3.53;;;;;;;1.83;85.06;100322.13;5011843;28;20061;-75
2021/01/26 08:20:30;;;;;;;14.65;5.03;;;;;;;1.75;84.81;100313.53;5019516;28;20116;-75
2021/01/26 08:23:09;;;;;;;20.13;3.97;;;;;;;1.78;85.03;100325.75;5024064;28;20054;-78
2021/01/26 08:25:41;;;;;;;10.23;4.13;;;;;;;1.84;85.46;100322.97;5013512;28;20057;-77
2021/01/26 08:28:09;;;;;;;14.57;3.85;;;;;;;1.80;84.48;100334.47;5010421;28;20049;-78
2021/01/26 08:30:35;;;;;;;12.00;3.55;;;;;;;1.79;84.48;100338.00;5017336;28;20108;-77
2021/01/26 08:33:14;;;;;;;10.27;4.97;;;;;;;1.79;84.26;100340.66;5019373;28;20050;-75
2021/01/26 08:36:01;;;;;;;14.80;3.70;;;;;;;1.76;84.94;100344.19;5008834;28;20056;-75
2021/01/26 08:38:53;;;;;;;10.60;3.45;;;;;;;1.81;84.29;100344.09;5004161;28;20045;-75
2021/01/26 08:41:43;;;;;;;17.63;4.65;;;;;;;1.86;84.50;100348.34;5018256;28;20057;-72
2021/01/26 08:44:18;;;;;;;14.57;3.70;;;;;;;1.84;84.12;100341.38;5007219;28;20057;-73
2021/01/26 08:46:46;;;;;;;10.75;3.33;;;;;;;1.77;84.43;100343.31;5014107;28;20062;-73
2021/01/26 08:49:36;;;;;;;12.63;3.60;;;;;;;1.83;84.45;100361.59;5017289;28;20137;-74
2021/01/26 08:52:22;;;;;;;11.82;3.58;;;;;;;1.78;84.07;100352.94;5007721;28;20049;-75
2021/01/26 08:54:51;;;;;;;10.65;2.67;;;;;;;1.76;84.47;100366.09;5012417;28;20054;-75
2021/01/26 08:57:28;;;;;;;11.00;3.37;;;;;;;1.79;85.55;100377.50;5017294;28;20050;-74
2021/01/26 08:59:56;;;;;;;12.27;3.40;;;;;;;1.80;85.66;100377.44;5014433;28;20279;-75
2021/01/26 09:02:38;;;;;;;9.07;3.22;;;;;;;1.83;85.33;100368.59;5013571;28;20050;-77
2021/01/26 09:05:08;;;;;;;14.52;3.33;;;;;;;1.90;85.36;100376.34;5009372;28;20085;-77
2021/01/26 09:07:55;;;;;;;10.05;3.13;;;;;;;1.85;84.93;100372.09;5007059;28;20662;-76
2021/01/26 09:10:32;;;;;;;8.73;3.00;;;;;;;1.98;85.18;100401.63;5003256;28;20042;-74
2021/01/26 09:13:06;;;;;;;8.77;3.25;;;;;;;2.01;83.93;100391.91;5004283;28;20114;-75
2021/01/26 09:15:36;;;;;;;12.73;3.20;;;;;;;1.96;84.26;100393.78;4997462;28;20054;-76
2021/01/26 09:18:02;;;;;;;17.30;3.45;;;;;;;1.90;84.83;100384.25;5004833;28;20352;-76
2021/01/26 09:20:31;;;;;;;9.60;2.90;;;;;;;2.04;85.31;100396.25;5017108;28;20103;-76
2021/01/26 09:23:00;;;;;;;9.70;3.53;;;;;;;2.03;84.48;100405.06;5015841;28;20061;-75
2021/01/26 09:25:35;;;;;;;12.73;3.42;;;;;;;2.01;84.92;100407.72;5014992;28;20391;-76
2021/01/26 09:28:03;;;;;;;11.13;2.80;;;;;;;2.03;84.25;100415.59;5004434;28;20107;-77
2021/01/26 09:30:30;;;;;;;11.32;3.45;;;;;;;2.05;84.55;100410.28;5015089;28;20061;-78
2021/01/26 09:33:14;;;;;;;9.95;2.70;;;;;;;2.13;84.27;100424.16;5016273;28;20049;-75
2021/01/26 09:36:16;;;;;;;9.77;2.92;;;;;;;2.12;84.34;100422.41;5008434;28;20050;-76
2021/01/26 09:38:45;;;;;;;10.90;3.47;;;;;;;2.19;84.78;100431.91;5007709;28;20042;-76
2021/01/26 09:41:29;;;;;;;8.38;2.60;;;;;;;2.26;84.23;100433.50;5016457;28;20411;-79
2021/01/26 09:44:06;;;;;;;12.02;3.55;;;;;;;2.30;83.46;100427.25;5006633;28;20133;-78
2021/01/26 09:46:36;;;;;;;8.93;3.63;;;;;;;2.31;83.90;100439.53;5015859;28;20053;-78
2021/01/26 09:49:20;;;;;;;16.85;3.25;;;;;;;2.34;83.41;100435.13;5012737;28;20061;-77
2021/01/26 09:51:55;;;;;;;12.30;3.15;;;;;;;2.35;83.49;100447.38;5005906;28;20062;-78
2021/01/26 09:54:29;;;;;;;12.63;3.35;;;;;;;2.36;83.49;100449.09;5008675;28;20056;-77
2021/01/26 09:57:00;;;;;;;14.43;2.95;;;;;;;2.43;83.35;100458.59;4995701;28;20058;-77
2021/01/26 09:59:31;;;;;;;12.80;3.45;;;;;;;2.43;83.60;100448.06;4996957;28;20177;-75
2021/01/26 10:02:00;;;;;;;16.58;3.30;;;;;;;2.39;83.60;100460.44;4996441;28;20054;-76
2021/01/26 10:04:27;;;;;;;11.13;4.40;;;;;;;2.41;83.04;100453.34;5001066;28;20382;-79
2021/01/26 10:07:04;;;;;;;16.05;3.17;;;;;;;2.44;83.07;100462.97;5011025;28;20064;-78
2021/01/26 10:09:34;;;;;;;15.15;2.85;;;;;;;2.55;83.50;100470.63;5010517;28;20423;-74
2021/01/26 10:12:28;;;;;;;16.55;3.80;;;;;;;2.50;83.46;100477.78;5004612;28;20105;-76
2021/01/26 10:15:07;;;;;;;13.27;3.60;;;;;;;2.46;83.95;100481.38;5040322;28;20061;-78
2021/01/26 10:17:59;;;;;;;13.43;3.47;;;;;;;2.50;83.57;100491.81;5012155;28;20050;-73
2021/01/26 10:20:47;;;;;;;7.65;3.28;;;;;;;2.47;83.25;100491.00;5035457;28;20046;-77
2021/01/26 10:23:21;;;;;;;13.63;3.30;;;;;;;2.38;83.74;100482.41;5007220;28;20054;-75
2021/01/26 10:25:48;;;;;;;8.95;3.58;;;;;;;2.51;84.05;100493.53;5005686;28;20046;-77
2021/01/26 10:28:24;;;;;;;13.07;4.72;;;;;;;2.57;83.22;100500.47;5009718;28;20041;-78
2021/01/26 10:30:51;;;;;;;9.48;3.30;;;;;;;2.61;83.18;100490.72;5006035;28;20049;-78
2021/01/26 10:33:40;;;;;;;10.75;3.92;;;;;;;2.75;82.44;100509.72;5006598;28;20042;-77
2021/01/26 10:36:27;;;;;;;10.35;3.20;;;;;;;2.80;82.88;100505.22;5005528;28;20053;-76
2021/01/26 10:38:56;;;;;;;9.02;3.78;;;;;;;2.80;82.37;100486.75;5004367;28;20054;-75
2021/01/26 10:41:22;;;;;;;17.10;3.78;;;;;;;2.80;82.38;100494.66;5001062;28;20050;-76
2021/01/26 10:43:58;;;;;;;17.17;3.58;;;;;;;2.77;82.56;100500.00;5008987;28;20144;-74
2021/01/26 10:46:36;;;;;;;15.25;3.58;;;;;;;2.81;83.51;100501.66;5007234;28;20050;-74
2021/01/26 10:49:30;;;;;;;9.02;3.20;;;;;;;2.85;82.54;100500.69;4997664;28;20077;-76
2021/01/26 10:52:08;;;;;;;16.60;3.78;;;;;;;2.91;82.46;100506.72;5011077;28;20068;-74
2021/01/26 10:54:36;;;;;;;10.38;3.22;;;;;;;2.90;82.58;100497.97;5004057;28;20401;-75
2021/01/26 10:57:03;;;;;;;12.13;3.30;;;;;;;2.94;82.46;100502.25;5004317;28;20051;-76
2021/01/26 10:59:29;;;;;;;11.32;3.55;;;;;;;2.94;81.99;100494.31;5006015;28;20043;-77
2021/01/26 11:01:55;;;;;;;13.13;3.15;;;;;;;2.89;81.77;100490.94;5003892;28;20065;-74
2021/01/26 11:04:22;;;;;;;10.55;3.03;;;;;;;2.88;81.80;100486.56;5018178;28;20134;-74
2021/01/26 11:06:49;;;;;;;9.82;3.58;;;;;;;2.75;82.57;100475.44;5007614;28;20061;-75
2021/01/26 11:09:16;;;;;;;9.93;3.60;;;;;;;2.93;81.88;100491.72;5002951;28;20466;-78
2021/01/26 11:11:45;;;;;;;11.73;3.75;;;;;;;2.95;82.33;100501.31;5001126;28;20049;-77
2021/01/26 11:14:13;;;;;;;13.52;3.00;;;;;;;2.99;82.09;100494.22;5002499;28;20050;-75
2021/01/26 11:16:39;;;;;;;11.48;3.45;;;;;;;3.05;82.59;100480.88;5004959;28;20046;-72
2021/01/26 11:19:10;;;;;;;;;;;;;;;3.21;82.34;100491.06;5004078;28;20065;-75
2021/01/26 11:21:36;;;;;;;16.63;3.47;;;;;;;3.07;81.26;100475.56;5005202;28;19922;-78
2021/01/26 11:24:03;;;;;;;11.27;3.35;;;;;;;3.07;80.99;100470.31;5003868;28;20420;-74
2021/01/26 11:26:29;;;;;;;17.30;3.42;;;;;;;3.12;81.34;100485.09;5006125;28;20049;-75
2021/01/26 11:28:56;;;;;;;13.05;3.85;;;;;;;3.18;81.59;100488.50;5013342;28;20046;-73
2021/01/26 11:31:22;;;;;;;8.38;3.17;;;;;;;3.25;81.60;100484.78;5006611;28;20112;-72
2021/01/26 11:33:48;;;;;;;11.18;3.13;;;;;;;3.29;81.29;100489.09;5007374;28;20089;-72
2021/01/26 11:36:15;;;;;;;12.82;3.88;;;;;;;3.25;80.87;100480.41;5007976;28;20447;-72
2021/01/26 11:38:42;;;;;;;13.07;3.67;;;;;;;3.12;81.52;100485.09;5008244;28;20129;-72
2021/01/26 11:41:09;;;;;;;14.43;3.15;;;;;;;3.05;82.09;100467.69;5009196;28;20056;-71
2021/01/26 11:43:36;;;;;;;13.88;3.17;;;;;;;3.03;81.31;100461.59;5008403;28;20391;-72
2021/01/26 11:46:04;;;;;;;12.60;3.45;;;;;;;3.15;80.92;100484.16;5009565;28;20100;-72
2021/01/26 11:48:31;;;;;;;10.50;3.10;;;;;;;3.16;80.87;100487.66;5040010;28;20154;-71
2021/01/26 11:50:59;;;;;;;8.88;3.70;;;;;;;3.26;80.57;100483.88;5006661;28;20081;-72
2021/01/26 11:53:25;;;;;;;13.80;3.47;;;;;;;3.23;81.40;100481.34;5004669;28;20046;-71
2021/01/26 11:55:51;;;;;;;12.80;3.70;;;;;;;3.32;80.06;100488.16;5009093;28;20104;-70
2021/01/26 11:58:18;;;;;;;11.13;3.92;;;;;;;3.28;80.95;100482.09;5008306;28;20417;-71
2021/01/26 12:00:44;;;;;;;14.13;3.80;;;;;;;3.35;80.69;100488.06;5013111;28;20108;-73
2021/01/26 12:03:10;;;;;;;13.48;3.65;;;;;;;3.38;80.38;100485.34;5008862;28;20050;-71
2021/01/26 12:05:39;;;;;;;9.25;3.20;;;;;;;3.33;80.27;100488.09;5012565;28;20506;-71